createdAt,value
2023-04-15T00:02:36.000Z,6.44
2023-04-15T00:07:35.000Z,5.14
2023-04-15T00:12:36.000Z,6.74
2023-04-15T00:17:36.000Z,4.91
2023-04-15T00:22:35.000Z,4.61
2023-04-15T00:27:36.000Z,4.41
2023-04-15T00:32:36.000Z,4.26
2023-04-15T00:37:36.000Z,4.38
2023-04-15T00:42:35.000Z,4.87
2023-04-15T00:47:36.000Z,4.82
2023-04-15T00:52:36.000Z,4.97
2023-04-15T00:57:36.000Z,4.36
2023-04-15T01:02:36.000Z,8.96
2023-04-15T01:07:35.000Z,5.03
2023-04-15T01:12:36.000Z,5.03
2023-04-15T01:17:36.000Z,5.34
2023-04-15T01:22:35.000Z,7.68
2023-04-15T01:27:35.000Z,8.64
2023-04-15T01:32:36.000Z,7.43
2023-04-15T01:37:35.000Z,8.23
2023-04-15T01:42:36.000Z,7.08
2023-04-15T01:47:35.000Z,6.61
2023-04-15T01:52:36.000Z,6.22
2023-04-15T01:57:35.000Z,6.18
2023-04-15T02:02:36.000Z,7.45
2023-04-15T02:07:35.000Z,6.24
2023-04-15T02:12:36.000Z,5.51
2023-04-15T02:17:35.000Z,6.04
2023-04-15T02:22:36.000Z,6.04
2023-04-15T02:27:36.000Z,5.52
2023-04-15T02:32:35.000Z,6.59
2023-04-15T02:37:35.000Z,6.42
2023-04-15T02:42:35.000Z,5.19
2023-04-15T02:47:36.000Z,5.32
2023-04-15T02:52:35.000Z,5.92
2023-04-15T02:57:35.000Z,4.76
2023-04-15T03:02:36.000Z,4.83
2023-04-15T03:07:35.000Z,5.22
2023-04-15T03:12:35.000Z,4.76
2023-04-15T03:17:36.000Z,5.31
2023-04-15T03:22:35.000Z,6.18
2023-04-15T03:27:36.000Z,6.44
2023-04-15T03:32:35.000Z,6.44
2023-04-15T03:37:35.000Z,7.51
2023-04-15T03:42:35.000Z,7.75
2023-04-15T03:47:36.000Z,6.45
2023-04-15T03:52:35.000Z,5.85
2023-04-15T03:57:36.000Z,6.19
2023-04-15T04:02:35.000Z,5.45
2023-04-15T04:07:35.000Z,6.03
2023-04-15T04:12:35.000Z,5.92
2023-04-15T04:17:35.000Z,5.91
2023-04-15T04:22:35.000Z,4.91
2023-04-15T04:27:35.000Z,6.63
2023-04-15T04:32:36.000Z,8.84
2023-04-15T04:37:36.000Z,9.05
2023-04-15T04:42:35.000Z,9.05
2023-04-15T04:47:36.000Z,8.84
2023-04-15T04:52:36.000Z,6.97
2023-04-15T04:57:36.000Z,6.3
2023-04-15T05:02:35.000Z,4.97
2023-04-15T05:07:35.000Z,4.37
2023-04-15T05:12:36.000Z,4.79
2023-04-15T05:17:35.000Z,4.56
2023-04-15T11:47:36.000Z,6.34
2023-04-15T11:52:36.000Z,6.23
2023-04-15T11:57:36.000Z,7.28
2023-04-15T12:02:36.000Z,7.65
2023-04-15T12:07:36.000Z,7.65
2023-04-15T12:12:35.000Z,7.44
2023-04-15T12:17:35.000Z,6.84
2023-04-15T12:22:35.000Z,6.6
2023-04-15T12:27:38.000Z,7.75
2023-04-15T12:32:35.000Z,8.99
2023-04-15T12:37:35.000Z,8.22
2023-04-15T12:42:36.000Z,7.17
2023-04-15T12:47:35.000Z,8.21
2023-04-15T12:52:35.000Z,7.84
2023-04-15T12:57:35.000Z,8.27
2023-04-15T13:02:35.000Z,7.33
2023-04-15T13:07:35.000Z,6.99
2023-04-15T13:12:36.000Z,8.08
2023-04-15T13:17:36.000Z,9.64
2023-04-15T13:22:36.000Z,9.64
2023-04-15T13:27:36.000Z,10.91
2023-04-15T13:32:36.000Z,8.39
2023-04-15T13:37:36.000Z,10.38
2023-04-15T13:42:35.000Z,10.93
2023-04-15T13:47:36.000Z,10.99
2023-04-15T13:52:36.000Z,12.64
2023-04-15T13:57:35.000Z,12.06
2023-04-15T14:02:35.000Z,13.26
2023-04-15T14:07:36.000Z,12.25
2023-04-15T14:12:36.000Z,13.13
2023-04-15T14:17:35.000Z,11.01
2023-04-15T14:22:35.000Z,11.35
2023-04-15T14:27:35.000Z,10.71
2023-04-15T14:32:36.000Z,9.69
2023-04-15T14:37:35.000Z,9.69
2023-04-15T14:42:35.000Z,11.59
2023-04-15T14:47:36.000Z,13.35
2023-04-15T14:52:36.000Z,11.47
2023-04-15T14:57:35.000Z,9.95
2023-04-15T15:02:50.000Z,9.86
2023-04-15T15:07:36.000Z,10.73
2023-04-15T15:12:35.000Z,9.98
2023-04-15T15:17:35.000Z,14.56
2023-04-15T15:22:35.000Z,10.61
2023-04-15T15:27:36.000Z,13.01
2023-04-15T15:32:36.000Z,14.15
2023-04-15T15:37:35.000Z,12.86
2023-04-15T15:42:35.000Z,12.86
2023-04-15T15:47:36.000Z,14.37
2023-04-15T15:52:36.000Z,19.97
2023-04-15T15:57:36.000Z,20.26
2023-04-15T16:03:06.000Z,24.25
2023-04-15T16:07:35.000Z,33.03
2023-04-15T16:12:36.000Z,43.82
2023-04-15T16:17:35.000Z,35.95
2023-04-15T16:22:40.000Z,40.64
2023-04-15T16:27:36.000Z,36.75
2023-04-15T16:32:35.000Z,38.96
2023-04-15T16:37:35.000Z,46.47
2023-04-15T16:42:36.000Z,51.86
2023-04-15T16:47:35.000Z,56.6
2023-04-15T16:52:36.000Z,66.06
2023-04-15T16:58:11.000Z,63.51
2023-04-15T17:02:36.000Z,63.51
2023-04-15T17:07:36.000Z,54.76
2023-04-15T17:12:35.000Z,49.84
2023-04-15T17:17:35.000Z,56.45
2023-04-15T17:22:36.000Z,56.19
2023-04-15T17:27:35.000Z,49.09
2023-04-15T17:32:36.000Z,42.01
2023-04-15T17:37:35.000Z,37.38
2023-04-15T17:42:36.000Z,40.33
2023-04-15T17:47:36.000Z,32.32
2023-04-15T17:52:35.000Z,31.11
2023-04-15T17:57:36.000Z,27.41
2023-04-15T18:02:36.000Z,27.41
2023-04-15T18:07:35.000Z,31.37
2023-04-15T18:12:36.000Z,31.37
2023-04-15T18:17:36.000Z,33.8
2023-04-15T18:22:35.000Z,30.63
2023-04-15T18:27:36.000Z,36.08
2023-04-15T18:32:35.000Z,34.26
2023-04-15T18:37:35.000Z,31.88
2023-04-15T18:42:36.000Z,38.06
2023-04-15T18:47:37.000Z,30.53
2023-04-15T18:52:35.000Z,31.01
2023-04-15T18:57:46.000Z,30.08
2023-04-15T19:02:36.000Z,28.82
2023-04-15T19:07:35.000Z,27.88
2023-04-15T19:12:36.000Z,29.54
2023-04-15T19:17:36.000Z,29.54
2023-04-15T19:22:36.000Z,29.17
2023-04-15T19:27:36.000Z,31.06
2023-04-15T19:32:36.000Z,38.77
2023-04-15T19:37:35.000Z,37.14
2023-04-15T19:42:35.000Z,36.19
2023-04-15T19:47:36.000Z,30.11
2023-04-15T19:52:36.000Z,31.03
2023-04-15T19:57:35.000Z,30.54
2023-04-15T20:02:36.000Z,27.95
2023-04-15T20:07:35.000Z,28.82
2023-04-15T20:13:02.000Z,27.08
2023-04-15T20:17:35.000Z,28.96
2023-04-15T20:22:35.000Z,29.39
2023-04-15T20:27:35.000Z,29.39
2023-04-15T20:32:36.000Z,29.99
2023-04-15T20:37:35.000Z,30.81
2023-04-15T20:42:36.000Z,31.59
2023-04-15T20:47:36.000Z,31.46
2023-04-15T20:52:35.000Z,28.87
2023-04-15T20:57:36.000Z,35.05
2023-04-15T21:02:36.000Z,37.73
2023-04-15T21:07:35.000Z,36.58
2023-04-15T21:12:35.000Z,37.88
2023-04-15T21:17:36.000Z,36.77
2023-04-15T21:22:36.000Z,35.18
2023-04-15T21:27:36.000Z,42.07
2023-04-15T21:32:36.000Z,50.33
2023-04-15T21:37:36.000Z,50.33
2023-04-15T21:42:35.000Z,36.07
2023-04-15T21:47:35.000Z,38.69
2023-04-15T21:52:36.000Z,34.71
2023-04-15T21:57:36.000Z,32.15
2023-04-15T22:02:35.000Z,26.82
2023-04-15T22:07:36.000Z,24.35
2023-04-15T22:12:36.000Z,23.8
2023-04-15T22:17:35.000Z,20.27
2023-04-15T22:22:53.000Z,22.45
2023-04-15T22:27:35.000Z,23.57
2023-04-15T22:32:35.000Z,22.55
2023-04-15T22:37:36.000Z,24.38
2023-04-15T22:42:35.000Z,27.29
2023-04-15T22:47:36.000Z,28.65
2023-04-15T22:52:41.000Z,28.65
2023-04-15T22:57:36.000Z,28.59
2023-04-15T23:02:37.000Z,28.33
2023-04-15T23:07:35.000Z,32.04
2023-04-15T23:12:35.000Z,37.82
2023-04-15T23:17:35.000Z,35.89
2023-04-15T23:22:35.000Z,32.98
2023-04-15T23:27:36.000Z,27.8
2023-04-15T23:32:36.000Z,31.83
2023-04-15T23:37:35.000Z,31.23
2023-04-15T23:42:36.000Z,32.36
2023-04-15T23:47:36.000Z,34.41
2023-04-15T23:52:35.000Z,32.69
2023-04-15T23:57:35.000Z,31.8
